createdAt,value
2022-10-07T00:00:51.085Z,6.38
2022-10-07T00:03:18.799Z,7.32
2022-10-07T00:05:45.728Z,5.85
2022-10-07T00:08:12.806Z,5.10
2022-10-07T00:10:41.488Z,5.03
2022-10-07T00:13:09.909Z,4.22
2022-10-07T00:15:36.607Z,4.82
2022-10-07T00:18:03.626Z,5.00
2022-10-07T00:20:30.259Z,6.45
2022-10-07T00:22:56.907Z,5.45
2022-10-07T00:25:23.715Z,6.38
2022-10-07T00:27:50.387Z,7.28
2022-10-07T00:30:17.233Z,7.85
2022-10-07T00:32:44.107Z,6.38
2022-10-07T00:35:11.051Z,5.45
2022-10-07T00:37:43.192Z,5.65
2022-10-07T00:40:12.798Z,7.65
2022-10-07T00:42:40.586Z,5.55
2022-10-07T00:45:15.054Z,6.55
2022-10-07T00:47:46.005Z,8.07
2022-10-07T00:50:19.224Z,7.45
2022-10-07T00:52:53.706Z,9.23
2022-10-07T00:55:23.511Z,5.43
2022-10-07T00:57:53.735Z,6.45
2022-10-07T01:00:23.523Z,8.15
2022-10-07T01:02:51.723Z,7.32
2022-10-07T01:05:19.215Z,6.50
2022-10-07T01:07:48.349Z,6.85
2022-10-07T01:10:18.831Z,6.28
2022-10-07T01:13:08.563Z,7.13
2022-10-07T01:15:41.596Z,9.13
2022-10-07T01:18:25.271Z,6.97
2022-10-07T01:21:06.883Z,8.05
2022-10-07T01:23:39.140Z,10.18
2022-10-07T01:26:11.796Z,6.78
2022-10-07T01:28:44.697Z,9.00
2022-10-07T01:31:16.998Z,9.18
2022-10-07T01:33:46.423Z,8.73
2022-10-07T01:36:17.549Z,7.20
2022-10-07T01:38:51.363Z,7.88
2022-10-07T01:41:21.508Z,7.35
2022-10-07T01:43:52.717Z,5.82
2022-10-07T01:46:22.564Z,5.80
2022-10-07T01:48:49.347Z,7.22
2022-10-07T01:51:17.835Z,7.63
2022-10-07T01:54:05.508Z,7.68
2022-10-07T01:56:42.056Z,6.20
2022-10-07T01:59:11.615Z,8.15
2022-10-07T02:01:47.027Z,8.43
2022-10-07T02:04:36.611Z,7.60
2022-10-07T02:07:25.479Z,7.50
2022-10-07T02:10:19.555Z,6.88
2022-10-07T02:13:13.905Z,6.85
2022-10-07T02:15:47.979Z,9.43
2022-10-07T02:18:18.685Z,8.45
2022-10-07T02:20:49.470Z,7.95
2022-10-07T02:23:19.115Z,12.68
2022-10-07T02:25:48.872Z,11.32
2022-10-07T02:28:20.070Z,8.93
2022-10-07T02:30:53.378Z,11.60
2022-10-07T02:33:22.846Z,12.95
2022-10-07T02:36:22.424Z,12.95
2022-10-07T02:38:49.342Z,16.63
2022-10-07T02:41:32.207Z,14.85
2022-10-07T02:44:29.768Z,14.07
2022-10-07T02:47:04.027Z,12.98
2022-10-07T02:49:33.235Z,13.50
2022-10-07T02:52:05.515Z,12.63
2022-10-07T02:54:41.445Z,14.95
2022-10-07T02:57:10.887Z,17.63
2022-10-07T02:59:39.403Z,13.73
2022-10-07T03:02:12.662Z,13.88
2022-10-07T03:07:05.767Z,13.95
2022-10-07T03:09:32.371Z,17.70
2022-10-07T03:11:58.976Z,13.70
2022-10-07T03:14:25.739Z,14.80
2022-10-07T03:16:52.917Z,16.58
2022-10-07T03:19:19.539Z,19.20
2022-10-07T03:21:46.135Z,12.60
2022-10-07T03:24:12.877Z,17.02
2022-10-07T03:26:39.859Z,19.20
2022-10-07T03:29:08.388Z,16.42
2022-10-07T03:31:35.306Z,20.40
2022-10-07T03:34:02.126Z,19.35
2022-10-07T03:36:29.010Z,19.10
2022-10-07T03:38:55.717Z,21.25
2022-10-07T03:41:22.473Z,24.85
2022-10-07T03:43:49.079Z,22.10
2022-10-07T03:46:16.761Z,23.70
2022-10-07T03:48:43.410Z,23.02
2022-10-07T03:51:10.018Z,23.27
2022-10-07T03:53:38.655Z,18.50
2022-10-07T03:56:05.428Z,14.27
2022-10-07T03:58:32.023Z,25.85
2022-10-07T04:01:10.446Z,21.55
2022-10-07T04:03:37.022Z,27.30
2022-10-07T04:06:03.982Z,24.25
2022-10-07T04:08:32.989Z,27.48
2022-10-07T04:11:00.512Z,26.67
2022-10-07T04:13:27.470Z,28.17
2022-10-07T04:15:55.180Z,26.10
2022-10-07T04:18:22.379Z,27.23
2022-10-07T04:20:49.047Z,27.48
2022-10-07T04:23:16.222Z,27.75
2022-10-07T04:25:44.790Z,30.85
2022-10-07T04:28:19.424Z,28.35
2022-10-07T04:30:51.207Z,34.00
2022-10-07T04:33:19.571Z,28.63
2022-10-07T04:35:46.338Z,31.83
2022-10-07T04:38:15.937Z,25.15
2022-10-07T04:40:48.152Z,26.38
2022-10-07T04:43:20.348Z,29.13
2022-10-07T04:45:48.878Z,30.73
2022-10-07T04:48:18.311Z,30.10
2022-10-07T04:50:44.960Z,31.67
2022-10-07T04:53:14.354Z,30.50
2022-10-07T04:55:44.125Z,34.20
2022-10-07T04:58:11.122Z,29.33
2022-10-07T05:00:45.781Z,32.08
2022-10-07T05:03:13.954Z,30.50
2022-10-07T05:05:45.818Z,29.50
2022-10-07T05:08:13.976Z,29.40
2022-10-07T05:10:41.785Z,31.48
2022-10-07T05:13:13.958Z,33.10
2022-10-07T05:15:58.582Z,33.05
2022-10-07T05:18:27.034Z,34.05
2022-10-07T05:20:54.141Z,31.42
2022-10-07T05:23:27.895Z,32.15
2022-10-07T05:26:04.981Z,31.80
2022-10-07T05:28:32.058Z,32.03
2022-10-07T05:31:04.017Z,31.98
2022-10-07T05:33:31.683Z,33.25
2022-10-07T05:35:59.278Z,30.15
2022-10-07T05:38:26.222Z,31.05
2022-10-07T05:41:00.533Z,29.33
2022-10-07T05:43:28.442Z,33.70
2022-10-07T05:46:03.319Z,37.92
2022-10-07T05:48:38.086Z,36.13
2022-10-07T05:51:08.787Z,31.08
2022-10-07T05:53:35.683Z,32.35
2022-10-07T05:56:10.354Z,28.60
2022-10-07T05:58:37.167Z,32.42
2022-10-07T06:01:11.453Z,27.45
2022-10-07T06:03:41.071Z,31.58
2022-10-07T06:06:09.106Z,35.28
2022-10-07T06:08:36.461Z,31.33
2022-10-07T06:11:23.645Z,32.60
2022-10-07T06:13:54.590Z,28.40
2022-10-07T06:16:21.953Z,30.70
2022-10-07T06:18:50.613Z,28.38
2022-10-07T06:21:17.270Z,31.08
2022-10-07T06:23:43.868Z,32.60
2022-10-07T06:26:11.910Z,33.70
2022-10-07T06:28:40.481Z,31.08
2022-10-07T06:31:10.138Z,29.35
2022-10-07T06:33:37.105Z,30.45
2022-10-07T06:36:04.924Z,28.67
2022-10-07T06:38:31.677Z,28.05
2022-10-07T06:41:02.067Z,30.30
2022-10-07T06:43:30.348Z,33.35
2022-10-07T06:46:04.428Z,30.20
2022-10-07T06:48:33.656Z,31.83
2022-10-07T06:51:04.733Z,33.13
2022-10-07T06:53:32.290Z,28.30
2022-10-07T06:56:06.155Z,31.42
2022-10-07T06:58:33.452Z,29.38
2022-10-07T07:01:00.900Z,25.88
2022-10-07T07:03:29.015Z,25.80
2022-10-07T07:05:56.047Z,26.70
2022-10-07T07:08:27.659Z,27.48
2022-10-07T07:10:54.690Z,24.55
2022-10-07T07:13:21.338Z,22.70
2022-10-07T07:15:56.349Z,22.73
2022-10-07T07:18:23.439Z,19.65
2022-10-07T07:20:50.078Z,19.75
2022-10-07T07:23:16.656Z,20.40
2022-10-07T07:25:46.399Z,21.27
2022-10-07T07:28:15.540Z,17.48
2022-10-07T07:30:42.890Z,18.63
2022-10-07T07:33:10.003Z,19.33
2022-10-07T07:35:41.572Z,19.70
2022-10-07T07:38:08.865Z,18.95
2022-10-07T07:40:39.555Z,20.05
2022-10-07T07:43:07.427Z,17.08
2022-10-07T07:45:37.191Z,14.98
2022-10-07T07:48:04.700Z,16.25
2022-10-07T07:50:31.400Z,14.60
2022-10-07T07:53:00.199Z,14.48
2022-10-07T07:55:26.860Z,20.08
2022-10-07T07:57:53.477Z,17.52
2022-10-07T08:00:20.171Z,21.25
2022-10-07T08:02:46.982Z,19.77
2022-10-07T08:05:13.578Z,20.23
2022-10-07T08:07:40.194Z,19.80
2022-10-07T08:10:07.233Z,18.42
2022-10-07T08:12:34.010Z,17.40
2022-10-07T08:15:00.599Z,14.55
2022-10-07T08:17:27.254Z,18.25
2022-10-07T08:19:55.328Z,17.83
2022-10-07T08:22:22.251Z,16.95
2022-10-07T08:24:48.846Z,15.80
2022-10-07T08:27:15.523Z,14.65
2022-10-07T08:29:42.104Z,17.05
2022-10-07T08:32:08.751Z,16.73
2022-10-07T08:34:36.523Z,13.25
2022-10-07T08:37:03.902Z,14.02
2022-10-07T08:39:31.313Z,15.85
2022-10-07T08:42:25.116Z,10.90
2022-10-07T08:47:26.644Z,15.82
2022-10-07T08:50:20.000Z,14.27
2022-10-07T08:52:55.577Z,16.33
2022-10-07T08:55:28.259Z,15.00
2022-10-07T08:58:15.848Z,11.18
2022-10-07T09:00:44.805Z,13.13
2022-10-07T09:03:46.927Z,13.65
2022-10-07T09:06:19.199Z,14.95
2022-10-07T09:08:52.250Z,12.95
2022-10-07T09:11:25.760Z,16.45
2022-10-07T09:14:11.221Z,14.52
2022-10-07T09:16:44.031Z,15.90
2022-10-07T09:19:26.342Z,15.27
2022-10-07T09:21:57.534Z,16.50
2022-10-07T09:24:28.246Z,15.75
2022-10-07T09:26:58.510Z,14.50
2022-10-07T09:29:27.423Z,15.30
2022-10-07T09:31:54.392Z,16.13
2022-10-07T09:34:29.885Z,14.07
2022-10-07T09:37:20.808Z,18.35
2022-10-07T09:39:50.529Z,10.73
2022-10-07T09:42:39.991Z,16.02
2022-10-07T09:45:21.579Z,11.50
2022-10-07T09:47:56.768Z,14.40
2022-10-07T09:50:34.095Z,12.63
2022-10-07T09:53:01.967Z,15.52
2022-10-07T09:55:37.803Z,14.43
2022-10-07T09:58:18.762Z,16.83
2022-10-07T10:00:51.015Z,11.35
2022-10-07T10:03:18.121Z,14.57
2022-10-07T10:05:59.723Z,12.75
2022-10-07T10:08:29.915Z,17.60
2022-10-07T10:11:19.487Z,16.95
2022-10-07T10:13:48.419Z,13.70
2022-10-07T10:16:36.146Z,16.58
2022-10-07T10:19:05.759Z,15.95
2022-10-07T10:21:36.011Z,13.02
2022-10-07T10:24:10.524Z,15.40
2022-10-07T10:26:57.103Z,17.05
2022-10-07T10:29:38.638Z,15.77
2022-10-07T10:32:20.334Z,15.00
2022-10-07T10:35:09.784Z,15.50
2022-10-07T10:37:58.318Z,13.07
2022-10-07T10:41:03.599Z,15.35
2022-10-07T10:44:07.981Z,16.45
2022-10-07T10:47:06.767Z,17.05
2022-10-07T10:50:04.342Z,15.77
2022-10-07T10:52:58.590Z,16.70
2022-10-07T10:55:40.307Z,18.33
2022-10-07T10:58:33.147Z,16.63
2022-10-07T11:01:29.323Z,16.67
2022-10-07T11:04:29.724Z,14.50
2022-10-07T11:07:09.367Z,11.75
2022-10-07T11:09:43.873Z,17.27
2022-10-07T11:12:27.700Z,18.55
2022-10-07T11:15:02.174Z,16.88
2022-10-07T11:17:32.257Z,14.30
2022-10-07T11:20:16.499Z,16.83
2022-10-07T11:22:53.526Z,17.13
2022-10-07T11:25:44.450Z,14.00
2022-10-07T11:28:19.479Z,13.45
2022-10-07T11:30:55.027Z,12.65
2022-10-07T11:33:32.264Z,16.45
2022-10-07T11:36:14.772Z,15.45
2022-10-07T11:38:42.242Z,14.30
2022-10-07T11:41:25.156Z,14.70
2022-10-07T11:43:56.490Z,17.63
2022-10-07T11:46:32.003Z,17.92
2022-10-07T11:49:19.990Z,20.77
2022-10-07T11:52:18.346Z,17.20
2022-10-07T11:54:54.279Z,15.32
2022-10-07T11:57:24.569Z,14.75
2022-10-07T12:00:17.476Z,15.73
2022-10-07T12:02:48.929Z,15.85
2022-10-07T12:05:33.910Z,15.35
2022-10-07T12:08:36.405Z,18.55
2022-10-07T12:11:15.177Z,17.75
2022-10-07T12:13:46.002Z,20.50
2022-10-07T12:16:31.454Z,16.00
2022-10-07T12:19:07.285Z,16.92
2022-10-07T12:22:04.865Z,16.95
2022-10-07T12:24:34.644Z,18.17
2022-10-07T12:27:13.538Z,21.02
2022-10-07T12:29:50.926Z,17.75
2022-10-07T12:32:47.173Z,18.20
2022-10-07T12:35:35.424Z,16.70
2022-10-07T12:38:25.802Z,16.85
2022-10-07T12:41:05.518Z,16.77
2022-10-07T12:43:38.132Z,16.27
2022-10-07T12:46:17.242Z,19.65
2022-10-07T12:49:06.970Z,15.73
2022-10-07T12:51:39.437Z,19.17
2022-10-07T12:54:28.703Z,16.67
2022-10-07T12:56:55.623Z,15.45
2022-10-07T12:59:49.633Z,20.77
2022-10-07T13:02:50.274Z,15.82
2022-10-07T13:05:50.530Z,18.73
2022-10-07T13:08:35.198Z,17.45
2022-10-07T13:11:35.463Z,18.38
2022-10-07T13:14:08.865Z,16.23
2022-10-07T13:16:56.887Z,16.98
2022-10-07T13:19:59.440Z,18.13
2022-10-07T13:22:26.557Z,15.98
2022-10-07T13:24:58.370Z,16.73
2022-10-07T13:27:34.550Z,14.60
2022-10-07T13:30:04.113Z,16.23
2022-10-07T13:32:35.490Z,16.23
2022-10-07T13:35:29.663Z,14.90
2022-10-07T13:37:56.386Z,17.38
2022-10-07T13:40:33.955Z,17.70
2022-10-07T13:43:03.809Z,16.95
2022-10-07T13:45:32.254Z,16.15
2022-10-07T13:47:59.361Z,16.55
2022-10-07T13:50:29.343Z,15.98
2022-10-07T13:52:57.516Z,14.55
2022-10-07T13:55:33.184Z,14.38
2022-10-07T13:58:04.507Z,13.75
2022-10-07T14:00:42.258Z,16.23
2022-10-07T14:03:16.698Z,14.73
2022-10-07T14:05:52.026Z,16.15
2022-10-07T14:08:23.883Z,12.90
2022-10-07T14:11:03.419Z,14.65
2022-10-07T14:13:31.878Z,15.95
2022-10-07T14:15:59.588Z,15.63
2022-10-07T14:18:32.079Z,12.55
2022-10-07T14:21:17.127Z,14.88
2022-10-07T14:23:47.012Z,14.50
2022-10-07T14:26:18.091Z,17.42
2022-10-07T14:28:44.967Z,17.15
2022-10-07T14:31:39.167Z,17.20
2022-10-07T14:34:34.196Z,15.60
2022-10-07T14:37:10.426Z,17.58
2022-10-07T14:39:38.232Z,17.75
2022-10-07T14:42:10.224Z,18.23
2022-10-07T14:44:37.451Z,20.65
2022-10-07T14:47:13.065Z,19.67
2022-10-07T14:49:42.233Z,17.67
2022-10-07T14:52:18.072Z,17.58
2022-10-07T14:54:44.712Z,19.05
2022-10-07T14:57:11.327Z,18.10
2022-10-07T14:59:37.960Z,20.13
2022-10-07T15:02:04.619Z,17.08
2022-10-07T15:04:31.313Z,18.25
2022-10-07T15:06:58.186Z,18.90
2022-10-07T15:09:24.768Z,18.77
2022-10-07T15:11:51.392Z,18.33
2022-10-07T15:14:17.972Z,19.98
2022-10-07T15:16:44.650Z,19.98
2022-10-07T15:19:11.341Z,20.02
2022-10-07T15:21:38.031Z,22.80
2022-10-07T15:24:04.869Z,19.55
2022-10-07T15:26:31.544Z,21.48
2022-10-07T15:28:59.306Z,20.25
2022-10-07T15:31:29.158Z,21.25
2022-10-07T15:33:57.920Z,20.90
2022-10-07T15:36:26.902Z,20.30
2022-10-07T15:38:53.593Z,19.25
2022-10-07T15:41:29.496Z,21.48
2022-10-07T15:44:01.386Z,20.98
2022-10-07T15:46:28.211Z,21.88
2022-10-07T15:48:56.339Z,23.10
2022-10-07T15:51:25.577Z,23.13
2022-10-07T15:53:55.594Z,20.25
2022-10-07T15:56:22.559Z,23.33
2022-10-07T15:58:49.161Z,22.90
2022-10-07T16:01:15.868Z,21.27
2022-10-07T16:03:45.544Z,22.05
2022-10-07T16:06:16.635Z,21.33
2022-10-07T16:08:43.803Z,21.08
2022-10-07T16:11:12.167Z,21.50
2022-10-07T16:13:41.509Z,22.27
2022-10-07T16:16:14.767Z,22.08
2022-10-07T16:18:44.751Z,19.52
2022-10-07T16:21:22.763Z,19.77
2022-10-07T16:23:51.488Z,19.25
2022-10-07T16:26:24.690Z,17.42
2022-10-07T16:29:11.337Z,19.20
2022-10-07T16:31:40.457Z,19.25
2022-10-07T16:34:07.773Z,19.88
2022-10-07T16:36:40.960Z,19.23
2022-10-07T16:39:10.156Z,20.08
2022-10-07T16:41:41.513Z,19.30
2022-10-07T16:44:08.510Z,19.85
2022-10-07T16:46:36.094Z,18.58
2022-10-07T16:49:05.972Z,19.42
2022-10-07T16:51:35.561Z,17.80
2022-10-07T16:54:07.468Z,18.65
2022-10-07T16:56:35.699Z,20.88
2022-10-07T16:59:06.363Z,19.83
2022-10-07T17:01:34.014Z,18.92
2022-10-07T17:04:01.319Z,20.95
2022-10-07T17:06:30.179Z,21.38
2022-10-07T17:09:01.194Z,19.02
2022-10-07T17:11:31.137Z,17.27
2022-10-07T17:14:15.492Z,18.67
2022-10-07T17:16:45.538Z,19.98
2022-10-07T17:19:15.075Z,24.58
2022-10-07T17:21:42.394Z,22.60
2022-10-07T17:24:09.548Z,17.70
2022-10-07T17:26:37.728Z,22.25
2022-10-07T17:29:10.065Z,24.80
2022-10-07T17:31:39.322Z,22.38
2022-10-07T17:34:07.190Z,22.30
2022-10-07T17:36:34.551Z,24.15
2022-10-07T17:39:01.797Z,24.25
2022-10-07T17:41:31.339Z,23.52
2022-10-07T17:44:02.064Z,25.80
2022-10-07T17:46:31.434Z,24.00
2022-10-07T17:49:00.504Z,24.67
2022-10-07T17:51:29.027Z,25.75
2022-10-07T17:53:57.461Z,28.05
2022-10-07T17:56:24.323Z,27.58
2022-10-07T17:58:50.903Z,27.15
2022-10-07T18:01:22.721Z,27.95
2022-10-07T18:03:57.037Z,28.17
2022-10-07T18:06:28.143Z,27.38
2022-10-07T18:08:55.122Z,26.08
2022-10-07T18:11:21.850Z,28.90
2022-10-07T18:14:07.064Z,27.58
2022-10-07T18:16:35.266Z,27.13
2022-10-07T18:19:02.693Z,25.42
2022-10-07T18:21:31.075Z,23.98
2022-10-07T18:23:58.912Z,25.77
2022-10-07T18:26:25.779Z,26.58
2022-10-07T18:28:52.633Z,23.95
2022-10-07T18:31:19.716Z,24.55
2022-10-07T18:33:46.547Z,24.85
2022-10-07T18:36:16.008Z,24.88
2022-10-07T18:38:44.403Z,35.03
2022-10-07T18:41:16.736Z,27.35
2022-10-07T18:43:45.466Z,26.17
2022-10-07T18:46:14.530Z,27.75
2022-10-07T18:48:42.519Z,26.15
2022-10-07T18:51:10.891Z,25.50
2022-10-07T18:53:41.145Z,27.08
2022-10-07T18:56:11.577Z,24.90
2022-10-07T18:58:41.300Z,23.80
2022-10-07T19:01:10.311Z,32.50
2022-10-07T19:03:37.107Z,37.53
2022-10-07T19:06:08.912Z,33.60
2022-10-07T19:08:35.857Z,27.65
2022-10-07T19:11:17.820Z,28.70
2022-10-07T19:13:48.197Z,21.30
2022-10-07T19:16:26.550Z,23.60
2022-10-07T19:18:55.931Z,25.58
2022-10-07T19:21:23.728Z,27.60
2022-10-07T19:23:54.699Z,22.65
2022-10-07T19:26:24.976Z,24.60
2022-10-07T19:28:53.752Z,24.90
2022-10-07T19:31:24.915Z,27.25
2022-10-07T19:33:55.843Z,21.85
2022-10-07T19:36:23.442Z,24.58
2022-10-07T19:38:54.130Z,22.92
2022-10-07T19:41:23.785Z,22.55
2022-10-07T19:43:51.362Z,23.23
2022-10-07T19:46:19.384Z,23.60
2022-10-07T19:48:46.309Z,20.17
2022-10-07T19:51:15.692Z,20.95
2022-10-07T19:53:46.876Z,21.15
2022-10-07T19:56:16.975Z,19.50
2022-10-07T19:58:47.536Z,24.95
2022-10-07T20:01:16.176Z,22.58
2022-10-07T20:03:43.174Z,22.25
2022-10-07T20:06:11.302Z,23.70
2022-10-07T20:08:39.838Z,22.08
2022-10-07T20:11:07.711Z,22.00
2022-10-07T20:13:35.912Z,20.13
2022-10-07T20:16:14.691Z,19.90
2022-10-07T20:18:41.531Z,21.80
2022-10-07T20:21:11.940Z,20.80
2022-10-07T20:23:40.520Z,21.92
2022-10-07T20:26:14.371Z,22.33
2022-10-07T20:28:41.061Z,20.45
2022-10-07T20:31:09.846Z,21.05
2022-10-07T20:33:47.438Z,18.45
2022-10-07T20:36:17.316Z,17.70
2022-10-07T20:39:02.942Z,17.15
2022-10-07T20:41:48.387Z,15.60
2022-10-07T20:44:16.855Z,19.45
2022-10-07T20:46:44.106Z,17.30
2022-10-07T20:49:22.550Z,17.42
2022-10-07T20:51:57.311Z,23.70
2022-10-07T20:54:26.287Z,19.42
2022-10-07T20:56:54.735Z,16.33
2022-10-07T20:59:21.402Z,17.52
2022-10-07T21:01:48.292Z,16.20
2022-10-07T21:04:15.916Z,16.13
2022-10-07T21:06:43.346Z,16.77
2022-10-07T21:09:10.838Z,17.88
2022-10-07T21:11:38.452Z,15.07
2022-10-07T21:14:05.266Z,16.83
2022-10-07T21:16:32.665Z,15.18
2022-10-07T21:18:59.557Z,14.35
2022-10-07T21:21:26.174Z,16.25
2022-10-07T21:23:53.048Z,15.77
2022-10-07T21:26:21.125Z,15.05
2022-10-07T21:28:48.503Z,17.42
2022-10-07T21:31:17.983Z,17.98
2022-10-07T21:33:46.659Z,18.15
2022-10-07T21:36:18.090Z,13.90
2022-10-07T21:38:46.421Z,12.95
2022-10-07T21:41:20.874Z,14.30
2022-10-07T21:43:54.878Z,14.80
2022-10-07T21:46:23.273Z,16.05
2022-10-07T21:48:49.939Z,16.70
2022-10-07T21:51:17.049Z,16.10
2022-10-07T21:53:44.979Z,15.77
2022-10-07T21:56:13.548Z,17.13
2022-10-07T21:58:40.286Z,15.10
2022-10-07T22:01:12.168Z,15.93
2022-10-07T22:03:39.296Z,14.15
2022-10-07T22:06:08.472Z,14.40
2022-10-07T22:08:35.952Z,13.88
2022-10-07T22:11:13.931Z,12.77
2022-10-07T22:13:43.039Z,15.00
2022-10-07T22:16:14.967Z,15.52
2022-10-07T22:18:50.871Z,14.00
2022-10-07T22:21:23.020Z,16.50
2022-10-07T22:23:58.186Z,13.27
2022-10-07T22:26:32.666Z,13.60
2022-10-07T22:28:59.683Z,15.43
2022-10-07T22:31:26.836Z,17.58
2022-10-07T22:33:55.692Z,15.25
2022-10-07T22:36:23.094Z,15.63
2022-10-07T22:38:50.128Z,15.25
2022-10-07T22:41:18.460Z,14.50
2022-10-07T22:43:47.330Z,15.05
2022-10-07T22:46:26.252Z,14.50
2022-10-07T22:48:58.024Z,13.80
2022-10-07T22:51:28.562Z,13.65
2022-10-07T22:53:56.337Z,12.48
2022-10-07T22:56:24.394Z,13.25
2022-10-07T22:58:59.834Z,12.40
2022-10-07T23:01:31.362Z,12.65
2022-10-07T23:04:03.159Z,13.10
2022-10-07T23:06:34.988Z,11.88
2022-10-07T23:09:03.429Z,12.80
2022-10-07T23:11:31.070Z,12.82
2022-10-07T23:13:57.744Z,10.55
2022-10-07T23:16:34.122Z,12.48
2022-10-07T23:19:01.045Z,11.02
2022-10-07T23:21:33.359Z,10.55
2022-10-07T23:24:05.894Z,10.73
2022-10-07T23:26:34.262Z,10.65
2022-10-07T23:29:01.719Z,12.38
2022-10-07T23:31:30.527Z,11.32
2022-10-07T23:33:58.397Z,12.07
2022-10-07T23:36:26.312Z,11.30
2022-10-07T23:38:53.621Z,11.63
2022-10-07T23:41:23.431Z,13.65
2022-10-07T23:43:51.410Z,12.07
2022-10-07T23:46:20.219Z,12.00
2022-10-07T23:48:47.113Z,11.38
2022-10-07T23:51:16.810Z,13.48
2022-10-07T23:53:43.451Z,11.80
2022-10-07T23:56:10.084Z,11.43
2022-10-07T23:58:37.334Z,16.77
